Time;durP1;ratioP1;P1;durP2;ratioP2;P2;SDS_P1;SDS_P2;PMS_P1;PMS_P2;Temp;Humidity;BMP_temperature;BMP_pressure;BME280_temperature;BME280_humidity;BME280_pressure;Samples;Min_cycle;Max_cycle;Signal;HPM_P1;HPM_P2
2022/09/09 00:01:03;;;;;;;;;;;;;;;16.63;93.52;95454.22;5134937;27;1059;-51
2022/09/09 00:03:36;;;;;;;;;;;;;;;16.82;92.83;95455.50;5134914;27;1028;-50
2022/09/09 00:06:02;;;;;;;;;;;;;;;17.07;91.76;95449.72;5134919;27;1980;-50
2022/09/09 00:08:42;;;;;;;;;;;;;;;17.16;91.20;95448.53;5134702;27;1036;-50
2022/09/09 00:11:09;;;;;;;;;;;;;;;17.10;92.33;95455.56;5134831;27;1913;-51
2022/09/09 00:13:46;;;;;;;;;;;;;;;17.03;92.20;95457.34;5116222;27;962;-51
2022/09/09 00:16:17;;;;;;;;;;;;;;;16.96;91.88;95467.28;5134988;27;1043;-50
2022/09/09 00:18:46;;;;;;;;;;;;;;;16.80;92.15;95457.53;5134908;27;1104;-50
2022/09/09 00:21:15;;;;;;;;;;;;;;;16.76;91.81;95458.94;5134724;27;1052;-50
2022/09/09 00:23:45;;;;;;;;;;;;;;;16.66;92.17;95445.75;5134464;27;975;-51
2022/09/09 00:26:29;;;;;;;;;;;;;;;16.47;93.29;95444.53;5134525;27;1041;-50
2022/09/09 00:29:14;;;;;;;;;;;;;;;16.29;94.55;95444.91;5134334;27;1032;-50
2022/09/09 00:31:39;;;;;;;;;;;;;;;16.48;93.79;95439.94;5134449;27;1851;-50
2022/09/09 00:34:08;;;;;;;;;;;;;;;16.71;92.14;95446.03;5134284;27;1016;-51
2022/09/09 00:36:35;;;;;;;;;;;;;;;16.76;92.44;95454.38;5134250;27;1088;-50
2022/09/09 00:39:02;;;;;;;;;;;;;;;16.65;92.56;95454.03;5134240;27;1095;-51
2022/09/09 00:41:34;;;;;;;;;;;;;;;16.62;92.37;95459.81;5134469;28;953;-50
2022/09/09 00:44:06;;;;;;;;;;;;;;;16.49;92.78;95465.94;5133709;27;1959;-50
2022/09/09 00:46:48;;;;;;;;;;;;;;;16.63;91.77;95464.19;5131156;28;1214;-51
2022/09/09 00:49:14;;;;;;;;;;;;;;;16.65;91.99;95452.19;5113361;28;1930;-50
2022/09/09 00:51:43;;;;;;;;;;;;;;;16.29;92.40;95452.19;5113941;28;1021;-51
2022/09/09 00:54:21;;;;;;;;;;;;;;;16.18;93.86;95458.91;5104365;28;1190;-51
2022/09/09 00:57:07;;;;;;;;;;;;;;;16.38;93.67;95459.16;5075423;28;1037;-51
2022/09/09 00:59:46;;;;;;;;;;;;;;;16.48;92.34;95456.16;5075954;28;1198;-51
2022/09/09 01:02:29;;;;;;;;;;;;;;;16.24;93.19;95457.31;5093521;28;1037;-50
2022/09/09 01:05:01;;;;;;;;;;;;;;;16.08;93.81;95456.50;5093177;28;1072;-51
2022/09/09 01:07:27;;;;;;;;;;;;;;;15.97;94.62;95456.97;5093059;28;1025;-51
2022/09/09 01:09:58;;;;;;;;;;;;;;;16.14;94.46;95463.00;5093067;28;1995;-50
2022/09/09 01:12:41;;;;;;;;;;;;;;;16.28;94.01;95458.63;5093022;28;976;-50
2022/09/09 01:15:10;;;;;;;;;;;;;;;16.28;93.29;95456.75;5093135;28;1938;-50
2022/09/09 01:17:48;;;;;;;;;;;;;;;16.38;92.09;95454.59;5092934;28;1079;-50
2022/09/09 01:20:16;;;;;;;;;;;;;;;16.45;91.67;95448.41;5093057;28;1045;-51
2022/09/09 01:23:01;;;;;;;;;;;;;;;16.30;92.50;95451.19;5092901;28;958;-50
2022/09/09 01:25:46;;;;;;;;;;;;;;;16.20;93.18;95449.59;5092955;28;1124;-51
2022/09/09 01:28:25;;;;;;;;;;;;;;;16.18;92.94;95450.81;5092986;28;1035;-50
2022/09/09 01:30:51;;;;;;;;;;;;;;;16.20;93.71;95451.44;5092939;28;1997;-50
2022/09/09 01:33:17;;;;;;;;;;;;;;;16.31;93.52;95442.03;5092638;28;994;-50
2022/09/09 01:35:50;;;;;;;;;;;;;;;16.32;93.17;95443.72;5092933;28;1080;-50
2022/09/09 01:38:17;;;;;;;;;;;;;;;16.33;93.87;95445.38;5092826;28;1108;-51
2022/09/09 01:40:43;;;;;;;;;;;;;;;16.32;93.25;95446.44;5092885;28;1025;-51
2022/09/09 01:43:10;;;;;;;;;;;;;;;16.27;93.54;95454.25;5092738;28;1088;-50
2022/09/09 01:45:38;;;;;;;;;;;;;;;16.13;94.13;95447.84;5092708;28;1067;-51
2022/09/09 01:48:04;;;;;;;;;;;;;;;16.12;93.92;95455.09;5092614;28;1239;-51
2022/09/09 01:50:30;;;;;;;;;;;;;;;16.04;93.13;95452.50;5092797;28;1906;-51
2022/09/09 01:52:57;;;;;;;;;;;;;;;16.15;92.78;95445.81;5092966;28;1043;-51
2022/09/09 01:55:29;;;;;;;;;;;;;;;16.06;92.67;95441.53;5112825;28;1158;-50
2022/09/09 01:57:55;;;;;;;;;;;;;;;15.86;93.91;95443.94;5116859;28;961;-51
2022/09/09 02:00:21;;;;;;;;;;;;;;;15.79;93.87;95444.72;5116419;28;987;-50
2022/09/09 02:02:53;;;;;;;;;;;;;;;15.84;94.55;95454.94;5116672;28;1130;-50
2022/09/09 02:05:38;;;;;;;;;;;;;;;16.00;94.74;95456.59;5116340;28;1017;-50
2022/09/09 02:08:08;;;;;;;;;;;;;;;16.03;94.06;95458.06;5116573;28;2128;-51
2022/09/09 02:10:49;;;;;;;;;;;;;;;16.02;94.63;95459.13;5116178;28;1913;-51
2022/09/09 02:13:17;;;;;;;;;;;;;;;15.90;92.47;95456.06;5116386;28;1177;-50
2022/09/09 02:16:21;;;;;;;;;;;;;;;15.92;93.27;95462.94;5116252;28;1024;-50
2022/09/09 02:18:49;;;;;;;;;;;;;;;15.99;92.63;95465.69;5033280;28;1406;-50
2022/09/09 02:21:17;;;;;;;;;;;;;;;16.11;92.65;95456.13;5033361;28;1049;-51
2022/09/09 02:23:44;;;;;;;;;;;;;;;16.24;92.65;95468.09;5074268;28;1002;-50
2022/09/09 02:26:13;;;;;;;;;;;;;;;16.25;92.72;95459.00;5116401;28;1048;-50
2022/09/09 02:28:39;;;;;;;;;;;;;;;16.30;92.46;95459.28;5116061;28;1782;-51
2022/09/09 02:31:06;;;;;;;;;;;;;;;16.07;92.86;95454.84;5116048;28;1905;-49
2022/09/09 02:33:41;;;;;;;;;;;;;;;15.74;92.90;95457.91;5116021;28;1001;-50
2022/09/09 02:36:09;;;;;;;;;;;;;;;15.73;93.50;95466.16;5116106;28;1011;-51
2022/09/09 02:38:40;;;;;;;;;;;;;;;15.85;93.58;95456.59;5116105;28;968;-51
2022/09/09 02:41:06;;;;;;;;;;;;;;;16.00;92.79;95456.59;5115856;28;1005;-51
2022/09/09 02:43:33;;;;;;;;;;;;;;;16.07;92.25;95452.13;5115885;28;1059;-50
2022/09/09 02:46:02;;;;;;;;;;;;;;;15.88;92.91;95455.38;5115706;28;965;-50
2022/09/09 02:48:51;;;;;;;;;;;;;;;15.91;93.69;95450.47;5115517;28;1230;-50
2022/09/09 02:51:23;;;;;;;;;;;;;;;15.88;93.68;95460.78;5104688;28;1913;-50
2022/09/09 02:53:56;;;;;;;;;;;;;;;15.85;94.02;95455.78;5109227;28;1169;-50
2022/09/09 02:56:23;;;;;;;;;;;;;;;15.83;94.59;95447.88;5095056;28;946;-50
2022/09/09 02:58:51;;;;;;;;;;;;;;;15.89;94.58;95447.13;5095111;28;993;-50
2022/09/09 03:01:17;;;;;;;;;;;;;;;15.91;94.43;95457.72;5095152;28;1035;-50
2022/09/09 03:03:44;;;;;;;;;;;;;;;15.91;94.45;95455.03;5095096;28;1072;-50
2022/09/09 03:06:11;;;;;;;;;;;;;;;15.90;94.36;95459.59;5094740;28;988;-50
2022/09/09 03:08:37;;;;;;;;;;;;;;;15.83;94.33;95449.75;5094969;28;1008;-50
2022/09/09 03:11:03;;;;;;;;;;;;;;;15.73;94.76;95456.25;5094671;28;1913;-50
2022/09/09 03:13:29;;;;;;;;;;;;;;;15.62;95.43;95451.28;5094761;28;985;-50
2022/09/09 03:15:55;;;;;;;;;;;;;;;15.64;95.45;95446.53;5094685;28;1016;-50
2022/09/09 03:18:21;;;;;;;;;;;;;;;15.71;94.97;95444.78;5094707;28;1037;-51
2022/09/09 03:20:50;;;;;;;;;;;;;;;15.75;94.14;95442.59;5094641;28;996;-50
2022/09/09 03:23:16;;;;;;;;;;;;;;;15.55;94.64;95442.25;5094721;28;978;-51
2022/09/09 03:25:46;;;;;;;;;;;;;;;15.49;94.80;95454.59;5094482;28;1057;-50
2022/09/09 03:28:12;;;;;;;;;;;;;;;15.47;95.40;95442.34;5094581;28;1108;-50
2022/09/09 03:30:38;;;;;;;;;;;;;;;15.59;94.35;95446.25;5094526;28;1913;-51
2022/09/09 03:33:04;;;;;;;;;;;;;;;15.49;94.95;95451.09;5094699;28;954;-50
2022/09/09 03:35:30;;;;;;;;;;;;;;;15.46;95.13;95455.00;5094387;28;992;-51
2022/09/09 03:37:56;;;;;;;;;;;;;;;15.51;94.59;95446.34;5094464;28;1028;-50
2022/09/09 03:40:22;;;;;;;;;;;;;;;15.53;94.36;95452.38;5094224;28;1035;-50
2022/09/09 03:42:48;;;;;;;;;;;;;;;15.56;94.10;95454.72;5094316;28;1080;-50
2022/09/09 03:45:14;;;;;;;;;;;;;;;15.51;93.72;95451.72;5094300;28;1027;-50
2022/09/09 03:47:40;;;;;;;;;;;;;;;15.47;92.99;95450.44;5094215;28;1108;-50
2022/09/09 03:50:09;;;;;;;;;;;;;;;15.42;93.86;95448.28;5094120;28;2001;-50
2022/09/09 03:52:36;;;;;;;;;;;;;;;15.38;94.48;95455.88;5094054;28;1040;-50
2022/09/09 03:55:02;;;;;;;;;;;;;;;15.41;94.71;95452.84;5110730;28;1177;-50
2022/09/09 03:57:29;;;;;;;;;;;;;;;15.38;93.97;95457.75;5114254;28;1044;-50
2022/09/09 03:59:55;;;;;;;;;;;;;;;15.31;93.49;95463.03;5114617;28;1029;-50
2022/09/09 04:02:21;;;;;;;;;;;;;;;15.32;94.37;95458.50;5114167;28;1016;-50
2022/09/09 04:04:47;;;;;;;;;;;;;;;15.37;93.57;95464.16;5114481;28;1020;-50
2022/09/09 04:07:13;;;;;;;;;;;;;;;15.29;94.33;95475.88;5114242;28;1049;-50
2022/09/09 04:09:39;;;;;;;;;;;;;;;15.31;94.44;95479.22;5114230;28;1886;-51
2022/09/09 04:12:06;;;;;;;;;;;;;;;15.34;94.68;95475.31;5113983;28;1961;-51
2022/09/09 04:14:32;;;;;;;;;;;;;;;15.38;94.79;95466.66;5114102;28;1939;-50
2022/09/09 04:16:59;;;;;;;;;;;;;;;15.24;94.44;95459.41;5114115;28;974;-50
2022/09/09 04:19:25;;;;;;;;;;;;;;;15.31;95.51;95463.03;5113348;28;1091;-50
2022/09/09 04:21:51;;;;;;;;;;;;;;;15.35;96.00;95464.34;5113985;28;986;-51
2022/09/09 04:24:17;;;;;;;;;;;;;;;15.34;95.91;95475.31;5114029;28;953;-50
2022/09/09 04:26:43;;;;;;;;;;;;;;;15.11;94.60;95472.66;5113765;28;1028;-50
2022/09/09 04:29:09;;;;;;;;;;;;;;;15.29;94.45;95466.91;5114216;28;1044;-50
2022/09/09 04:31:35;;;;;;;;;;;;;;;15.30;95.40;95460.53;5113807;28;1907;-50
2022/09/09 04:34:05;;;;;;;;;;;;;;;15.52;94.70;95473.09;5113886;28;993;-50
2022/09/09 04:36:31;;;;;;;;;;;;;;;15.56;95.17;95474.41;5113702;28;1199;-50
2022/09/09 04:38:58;;;;;;;;;;;;;;;15.61;95.24;95473.84;5113827;28;1032;-50
2022/09/09 04:41:24;;;;;;;;;;;;;;;15.68;94.77;95466.69;5113455;28;1029;-51
2022/09/09 04:43:49;;;;;;;;;;;;;;;15.54;94.55;95460.28;5114063;28;1041;-51
2022/09/09 04:46:17;;;;;;;;;;;;;;;15.56;94.90;95460.94;5113587;28;1235;-51
2022/09/09 04:48:43;;;;;;;;;;;;;;;15.58;95.99;95466.97;5113713;28;1338;-50
2022/09/09 04:51:11;;;;;;;;;;;;;;;15.77;95.69;95473.72;5095514;28;1985;-50
2022/09/09 04:53:37;;;;;;;;;;;;;;;15.91;95.43;95474.72;5108815;28;1150;-50
2022/09/09 04:56:04;;;;;;;;;;;;;;;16.03;95.67;95480.50;5093047;28;1161;-50
2022/09/09 04:58:30;;;;;;;;;;;;;;;16.15;95.86;95470.06;5093405;28;1044;-50
2022/09/09 05:01:10;;;;;;;;;;;;;;;16.28;95.46;95459.44;5093453;28;1029;-50
2022/09/09 05:03:36;;;;;;;;;;;;;;;16.35;95.23;95459.50;5093273;28;1044;-50
2022/09/09 05:06:12;;;;;;;;;;;;;;;16.45;94.89;95465.47;5093255;28;1004;-51
2022/09/09 05:08:38;;;;;;;;;;;;;;;16.61;95.40;95463.56;5093084;28;1088;-49
2022/09/09 05:11:18;;;;;;;;;;;;;;;16.67;95.01;95466.31;5093243;28;1999;-49
2022/09/09 05:13:44;;;;;;;;;;;;;;;16.81;94.56;95472.72;5093173;28;1005;-50
2022/09/09 05:16:11;;;;;;;;;;;;;;;16.96;94.63;95472.69;5093237;28;1033;-50
2022/09/09 05:18:40;;;;;;;;;;;;;;;17.14;94.86;95470.34;5092942;28;957;-49
2022/09/09 05:21:06;;;;;;;;;;;;;;;17.27;93.58;95472.34;5093005;28;1037;-49
2022/09/09 05:23:33;;;;;;;;;;;;;;;17.33;94.15;95471.53;5093016;28;969;-49
2022/09/09 05:26:00;;;;;;;;;;;;;;;17.36;93.77;95460.34;5093053;28;1056;-50
2022/09/09 05:28:26;;;;;;;;;;;;;;;17.53;93.13;95458.19;5092964;28;1049;-49
2022/09/09 05:31:07;;;;;;;;;;;;;;;17.78;91.84;95462.31;5095942;28;1902;-49
2022/09/09 05:33:34;;;;;;;;;;;;;;;17.98;90.78;95466.00;5096581;28;1056;-49
2022/09/09 05:36:02;;;;;;;;;;;;;;;18.06;90.90;95457.72;5097050;28;1057;-49
2022/09/09 05:38:28;;;;;;;;;;;;;;;18.26;90.71;95456.97;5096662;28;968;-49
2022/09/09 05:40:56;;;;;;;;;;;;;;;18.48;87.13;95461.25;5096854;28;1037;-49
2022/09/09 05:43:22;;;;;;;;;;;;;;;18.55;87.45;95472.06;5096520;28;950;-50
2022/09/09 05:45:58;;;;;;;;;;;;;;;18.61;87.62;95465.03;5096654;28;1025;-49
2022/09/09 05:48:24;;;;;;;;;;;;;;;18.84;87.73;95465.53;5096294;28;1107;-50
2022/09/09 05:50:53;;;;;;;;;;;;;;;18.95;86.50;95471.38;5096690;28;1988;-50
2022/09/09 05:53:19;;;;;;;;;;;;;;;18.92;88.10;95469.94;5098488;28;1146;-50
2022/09/09 05:55:45;;;;;;;;;;;;;;;18.87;87.07;95461.59;5116969;28;1024;-50
2022/09/09 05:58:11;;;;;;;;;;;;;;;19.03;87.84;95457.66;5116613;28;1088;-50
2022/09/09 06:00:37;;;;;;;;;;;;;;;19.14;86.67;95457.03;5116656;28;1048;-50
2022/09/09 06:03:03;;;;;;;;;;;;;;;19.10;88.38;95463.91;5116760;28;979;-49
2022/09/09 06:05:30;;;;;;;;;;;;;;;19.13;86.73;95468.94;5116803;28;1052;-50
2022/09/09 06:07:56;;;;;;;;;;;;;;;19.32;86.49;95475.41;5116738;28;954;-50
2022/09/09 06:10:22;;;;;;;;;;;;;;;19.39;87.40;95468.13;5116372;28;1918;-50
2022/09/09 06:12:48;;;;;;;;;;;;;;;19.46;87.44;95468.97;5116420;28;1008;-50
2022/09/09 06:15:14;;;;;;;;;;;;;;;19.47;85.05;95472.50;5116325;28;1944;-50
2022/09/09 06:17:41;;;;;;;;;;;;;;;19.74;84.02;95461.66;5116502;28;999;-50
2022/09/09 06:20:09;;;;;;;;;;;;;;;19.89;83.62;95457.66;5116542;28;961;-50
2022/09/09 06:22:35;;;;;;;;;;;;;;;19.94;82.53;95454.31;5115962;28;994;-50
2022/09/09 06:25:01;;;;;;;;;;;;;;;20.15;80.82;95449.69;5116230;28;1028;-50
2022/09/09 06:27:28;;;;;;;;;;;;;;;20.30;81.06;95447.53;5116207;28;996;-50
2022/09/09 06:29:54;;;;;;;;;;;;;;;20.71;79.22;95438.16;5115989;28;1914;-50
2022/09/09 06:32:20;;;;;;;;;;;;;;;21.59;75.02;95439.28;5115991;28;1016;-50
2022/09/09 06:34:46;;;;;;;;;;;;;;;22.95;69.32;95439.16;5115888;28;1064;-50
2022/09/09 06:37:12;;;;;;;;;;;;;;;25.58;60.63;95450.19;5116229;28;1047;-51
2022/09/09 06:39:38;;;;;;;;;;;;;;;27.84;51.28;95448.34;5115881;28;1040;-51
2022/09/09 06:42:04;;;;;;;;;;;;;;;29.17;46.88;95455.72;5097257;28;973;-51
2022/09/09 06:44:31;;;;;;;;;;;;;;;30.26;44.88;95454.69;5115532;28;1033;-51
2022/09/09 06:46:57;;;;;;;;;;;;;;;31.64;41.73;95473.50;5115838;28;1138;-51
2022/09/09 06:49:23;;;;;;;;;;;;;;;32.38;40.37;95470.69;5115943;28;980;-51
2022/09/09 06:51:49;;;;;;;;;;;;;;;31.40;42.75;95472.50;5115727;28;1906;-51
2022/09/09 06:54:15;;;;;;;;;;;;;;;29.17;46.58;95455.72;5105366;28;1219;-51
2022/09/09 06:56:42;;;;;;;;;;;;;;;30.47;44.17;95450.00;5095372;28;1017;-51
2022/09/09 06:59:09;;;;;;;;;;;;;;;31.96;40.53;95444.50;5095018;28;992;-51
2022/09/09 07:01:36;;;;;;;;;;;;;;;32.47;39.84;95445.97;5095086;28;950;-52
2022/09/09 07:04:04;;;;;;;;;;;;;;;31.17;41.89;95450.03;5095200;28;1053;-51
2022/09/09 07:06:31;;;;;;;;;;;;;;;30.53;42.99;95452.44;5094961;28;1061;-50
2022/09/09 07:08:58;;;;;;;;;;;;;;;28.57;47.90;95447.78;5094788;28;1100;-50
2022/09/09 07:11:29;;;;;;;;;;;;;;;28.15;50.50;95448.63;5094854;28;1980;-50
2022/09/09 07:13:55;;;;;;;;;;;;;;;27.57;50.79;95442.91;5094704;28;1146;-50
2022/09/09 07:16:24;;;;;;;;;;;;;;;25.25;58.64;95445.50;5095008;28;1032;-50
2022/09/09 07:18:50;;;;;;;;;;;;;;;23.54;64.49;95434.75;5094677;28;1116;-50
2022/09/09 07:21:16;;;;;;;;;;;;;;;23.37;66.15;95437.31;5094831;28;1024;-49
2022/09/09 07:23:43;;;;;;;;;;;;;;;23.76;65.61;95434.97;5094538;28;1088;-50
2022/09/09 07:26:13;;;;;;;;;;;;;;;24.35;63.93;95440.41;5094695;28;1067;-50
2022/09/09 07:28:41;;;;;;;;;;;;;;;24.92;61.04;95447.06;5094473;28;969;-50
2022/09/09 07:31:13;;;;;;;;;;;;;;;23.88;64.56;95445.91;5094898;28;1993;-50
2022/09/09 07:33:40;;;;;;;;;;;;;;;23.29;67.42;95439.53;5094599;28;1056;-50
2022/09/09 07:36:08;;;;;;;;;;;;;;;22.89;70.07;95442.84;5094560;28;1053;-50
2022/09/09 07:38:38;;;;;;;;;;;;;;;22.53;70.40;95441.84;5094380;28;1033;-50
2022/09/09 07:41:05;;;;;;;;;;;;;;;22.39;71.25;95442.00;5094763;28;960;-50
2022/09/09 07:43:31;;;;;;;;;;;;;;;23.52;69.07;95444.19;5094531;28;1000;-50
2022/09/09 07:45:58;;;;;;;;;;;;;;;25.04;62.75;95447.84;5094304;28;1025;-50
2022/09/09 07:48:24;;;;;;;;;;;;;;;26.00;59.97;95460.72;5094136;28;1092;-50
2022/09/09 07:50:51;;;;;;;;;;;;;;;26.09;58.22;95469.38;5094091;28;1914;-50
2022/09/09 07:53:17;;;;;;;;;;;;;;;26.06;58.88;95469.84;5095019;28;1150;-50
2022/09/09 07:55:43;;;;;;;;;;;;;;;26.15;59.40;95473.00;5114281;28;971;-50
2022/09/09 07:58:09;;;;;;;;;;;;;;;26.50;58.01;95478.16;5114703;28;999;-49
2022/09/09 08:00:35;;;;;;;;;;;;;;;26.30;59.88;95475.97;5114240;28;1840;-50
2022/09/09 08:03:01;;;;;;;;;;;;;;;25.20;61.92;95472.75;5114572;28;1057;-50
2022/09/09 08:05:28;;;;;;;;;;;;;;;24.34;64.09;95478.94;5114236;28;984;-50
2022/09/09 08:07:54;;;;;;;;;;;;;;;23.69;66.90;95469.72;5114291;28;1329;-50
2022/09/09 08:10:20;;;;;;;;;;;;;;;23.22;69.63;95464.22;5113849;28;1910;-50
2022/09/09 08:12:46;;;;;;;;;;;;;;;22.96;70.35;95466.22;5114507;28;1126;-50
2022/09/09 08:15:12;;;;;;;;;;;;;;;22.95;69.94;95463.72;5114239;28;1033;-50
2022/09/09 08:17:38;;;;;;;;;;;;;;;22.79;70.07;95463.28;5114064;28;1040;-50
2022/09/09 08:20:04;;;;;;;;;;;;;;;22.64;72.28;95449.25;5114030;28;1026;-50
2022/09/09 08:22:31;;;;;;;;;;;;;;;22.31;72.03;95442.31;5114024;28;978;-50
2022/09/09 08:24:57;;;;;;;;;;;;;;;22.15;71.87;95434.72;5113802;28;1043;-50
2022/09/09 08:27:24;;;;;;;;;;;;;;;22.22;72.71;95432.75;5113954;28;1021;-50
2022/09/09 08:29:50;;;;;;;;;;;;;;;22.35;75.01;95426.34;5113919;28;1909;-50
2022/09/09 08:32:16;;;;;;;;;;;;;;;22.36;72.87;95423.38;5113973;28;1017;-48
2022/09/09 08:34:42;;;;;;;;;;;;;;;22.37;72.22;95433.22;5113842;28;1024;-50
2022/09/09 08:37:08;;;;;;;;;;;;;;;22.40;71.76;95440.09;5113854;28;1029;-51
2022/09/09 08:39:34;;;;;;;;;;;;;;;22.52;71.04;95442.88;5113582;28;1029;-51
2022/09/09 08:42:06;;;;;;;;;;;;;;;22.58;72.14;95442.81;5114141;28;932;-50
2022/09/09 08:45:00;;;;;;;;;;;;;;;22.71;71.81;95447.28;5113730;28;1079;-51
2022/09/09 08:47:26;;;;;;;;;;;;;;;22.90;70.96;95444.50;5113521;28;2008;-56
2022/09/09 08:49:58;;;;;;;;;;;;;;;23.08;71.13;95443.63;5113545;28;1902;-50
2022/09/09 08:52:29;;;;;;;;;;;;;;;23.23;70.77;95441.31;5113612;28;1092;-51
2022/09/09 08:55:02;;;;;;;;;;;;;;;23.19;71.19;95438.22;5097856;28;1205;-50
2022/09/09 08:57:31;;;;;;;;;;;;;;;22.99;71.01;95437.63;5093393;28;961;-50
2022/09/09 08:59:58;;;;;;;;;;;;;;;22.91;72.48;95425.16;5093345;28;1020;-51
2022/09/09 09:02:42;;;;;;;;;;;;;;;22.79;72.10;95437.94;5093103;28;1069;-51
2022/09/09 09:05:29;;;;;;;;;;;;;;;22.79;71.94;95452.38;5094908;28;1052;-50
2022/09/09 09:08:03;;;;;;;;;;;;;;;22.78;71.14;95460.78;5097540;28;1044;-50
2022/09/09 09:10:49;;;;;;;;;;;;;;;22.65;73.35;95442.75;5097110;28;1902;-51
2022/09/09 09:13:23;;;;;;;;;;;;;;;22.65;73.12;95442.75;5097146;28;1063;-50
2022/09/09 09:15:53;;;;;;;;;;;;;;;22.70;73.46;95450.22;5097302;28;961;-49
2022/09/09 09:18:19;;;;;;;;;;;;;;;22.77;73.72;95451.78;5097412;28;974;-51
2022/09/09 09:21:06;;;;;;;;;;;;;;;22.86;72.64;95448.72;5097085;28;956;-50
2022/09/09 09:23:41;;;;;;;;;;;;;;;22.90;72.26;95431.69;5045941;28;1204;-50
2022/09/09 09:26:08;;;;;;;;;;;;;;;22.98;72.63;95425.09;5097115;28;992;-50
2022/09/09 09:28:36;;;;;;;;;;;;;;;23.02;73.08;95418.09;5096802;28;1100;-50
2022/09/09 09:31:06;;;;;;;;;;;;;;;22.96;73.63;95419.03;5096850;28;1910;-50
2022/09/09 09:33:43;;;;;;;;;;;;;;;23.06;73.61;95424.78;5096897;28;1039;-50
2022/09/09 09:36:09;;;;;;;;;;;;;;;23.18;72.15;95422.06;5096551;28;949;-50
2022/09/09 09:38:36;;;;;;;;;;;;;;;23.25;71.45;95416.53;5078932;28;966;-49
2022/09/09 09:41:02;;;;;;;;;;;;;;;23.29;72.96;95409.53;5096426;28;1127;-49
2022/09/09 09:43:29;;;;;;;;;;;;;;;23.28;74.02;95414.16;5096558;28;1032;-50
2022/09/09 09:45:57;;;;;;;;;;;;;;;23.19;72.60;95410.13;5096595;28;952;-50
2022/09/09 09:48:24;;;;;;;;;;;;;;;23.19;73.96;95405.47;5096398;28;1376;-49
2022/09/09 09:51:02;;;;;;;;;;;;;;;23.20;73.69;95411.75;5096404;28;1989;-50
2022/09/09 09:53:29;;;;;;;;;;;;;;;23.21;73.44;95412.63;5099684;28;1154;-50
2022/09/09 09:55:55;;;;;;;;;;;;;;;23.30;72.00;95408.47;5116828;28;1088;-50
2022/09/09 09:58:21;;;;;;;;;;;;;;;23.36;71.11;95416.53;5116558;28;1027;-49
2022/09/09 10:00:49;;;;;;;;;;;;;;;23.32;71.86;95420.00;5116744;28;1869;-49
2022/09/09 10:03:27;;;;;;;;;;;;;;;23.27;72.53;95422.59;5116402;28;1098;-49
2022/09/09 10:05:54;;;;;;;;;;;;;;;23.20;71.81;95428.13;5098826;28;1042;-49
2022/09/09 10:08:20;;;;;;;;;;;;;;;23.14;70.57;95421.72;5116503;28;969;-50
2022/09/09 10:11:09;;;;;;;;;;;;;;;23.08;72.39;95424.56;5116471;28;1902;-49
2022/09/09 10:13:36;;;;;;;;;;;;;;;23.12;73.02;95429.28;5116276;28;969;-49
2022/09/09 10:16:06;;;;;;;;;;;;;;;23.13;72.73;95427.41;5115440;28;972;-49
2022/09/09 10:19:01;;;;;;;;;;;;;;;23.09;72.41;95427.06;5116368;28;1108;-49
2022/09/09 10:21:30;;;;;;;;;;;;;;;23.11;71.92;95433.09;5098611;28;1424;-50
2022/09/09 10:24:05;;;;;;;;;;;;;;;23.10;71.51;95439.59;5116157;28;1080;-49
2022/09/09 10:26:52;;;;;;;;;;;;;;;23.16;73.11;95444.16;5116104;28;1855;-50
2022/09/09 10:29:30;;;;;;;;;;;;;;;23.22;72.17;95445.13;5116241;28;1878;-50
2022/09/09 10:32:02;;;;;;;;;;;;;;;23.27;72.21;95450.69;5116404;28;1894;-50
2022/09/09 10:34:57;;;;;;;;;;;;;;;23.33;73.45;95457.09;5115922;28;1025;-49
2022/09/09 10:37:26;;;;;;;;;;;;;;;23.38;73.21;95457.25;5098366;28;1402;-49
2022/09/09 10:40:00;;;;;;;;;;;;;;;23.47;73.21;95458.56;5115976;28;1091;-49
2022/09/09 10:42:30;;;;;;;;;;;;;;;23.52;72.68;95464.16;5115800;28;988;-50
2022/09/09 10:44:59;;;;;;;;;;;;;;;23.56;73.06;95467.22;5115908;28;960;-50
2022/09/09 10:47:25;;;;;;;;;;;;;;;23.55;72.55;95473.75;5115549;28;1310;-50
2022/09/09 10:50:11;;;;;;;;;;;;;;;23.52;73.50;95458.72;5115959;28;2005;-49
2022/09/09 10:52:40;;;;;;;;;;;;;;;23.50;74.64;95459.97;5115985;28;965;-50
2022/09/09 10:55:15;;;;;;;;;;;;;;;23.42;74.24;95452.16;5098579;28;1197;-49
2022/09/09 10:57:47;;;;;;;;;;;;;;;23.32;74.37;95452.72;5094998;28;997;-49
2022/09/09 11:00:19;;;;;;;;;;;;;;;23.42;74.08;95455.69;5095401;28;1055;-50
2022/09/09 11:02:48;;;;;;;;;;;;;;;23.52;75.05;95441.47;5095246;28;1084;-50
2022/09/09 11:05:19;;;;;;;;;;;;;;;23.62;73.90;95435.44;5095263;28;966;-49
2022/09/09 11:07:52;;;;;;;;;;;;;;;23.77;73.20;95433.91;5094922;28;1008;-48
2022/09/09 11:10:24;;;;;;;;;;;;;;;23.92;72.91;95430.75;5094848;28;1935;-48
2022/09/09 11:12:51;;;;;;;;;;;;;;;23.85;73.35;95427.31;5095059;28;1013;-48
2022/09/09 11:15:25;;;;;;;;;;;;;;;23.85;72.11;95423.75;5094853;28;1111;-49
2022/09/09 11:17:56;;;;;;;;;;;;;;;23.87;72.61;95414.25;5094884;28;1028;-48
2022/09/09 11:20:25;;;;;;;;;;;;;;;23.86;71.89;95404.38;5094761;28;969;-49
2022/09/09 11:22:54;;;;;;;;;;;;;;;23.86;72.93;95406.28;5094820;28;1013;-49
2022/09/09 11:25:26;;;;;;;;;;;;;;;23.86;71.73;95403.53;5094891;28;976;-49
2022/09/09 11:27:58;;;;;;;;;;;;;;;23.86;73.65;95407.09;5094509;28;964;-49
2022/09/09 11:30:36;;;;;;;;;;;;;;;23.87;73.45;95397.03;5094593;28;2000;-49
2022/09/09 11:33:05;;;;;;;;;;;;;;;23.88;72.84;95394.03;5094392;28;1016;-49
2022/09/09 11:35:37;;;;;;;;;;;;;;;23.92;71.93;95397.97;5094703;28;946;-49
2022/09/09 11:38:22;;;;;;;;;;;;;;;24.06;71.95;95397.72;5094342;28;1865;-48
2022/09/09 11:41:00;;;;;;;;;;;;;;;24.23;71.21;95398.63;5094431;28;1175;-49
2022/09/09 11:43:28;;;;;;;;;;;;;;;24.28;70.59;95397.91;5094191;28;976;-49
2022/09/09 11:45:58;;;;;;;;;;;;;;;24.28;72.32;95390.56;5094668;28;1077;-49
2022/09/09 11:51:46;;;;;;;;;;;;;;;24.28;72.38;95390.56;4754973;28;3137;-49
2022/09/09 11:54:29;;;;;;;;;;;;;;;24.32;72.42;95391.72;5103587;28;1217;-49
2022/09/09 11:56:56;;;;;;;;;;;;;;;24.26;71.89;95387.22;5114765;28;946;-49
2022/09/09 11:59:27;;;;;;;;;;;;;;;24.15;73.53;95396.28;5114337;28;950;-50
2022/09/09 12:02:03;;;;;;;;;;;;;;;24.05;73.71;95396.06;5115032;28;937;-49
2022/09/09 12:04:35;;;;;;;;;;;;;;;24.04;74.26;95408.06;5114103;28;956;-48
2022/09/09 12:07:11;;;;;;;;;;;;;;;23.95;73.15;95413.88;5114855;28;1012;-49
2022/09/09 12:09:48;;;;;;;;;;;;;;;23.83;73.76;95404.88;5114229;28;941;-49
2022/09/09 12:12:14;;;;;;;;;;;;;;;23.77;73.51;95406.63;5114297;28;985;-49
2022/09/09 12:14:59;;;;;;;;;;;;;;;23.75;73.74;95403.28;5114092;28;978;-49
2022/09/09 12:17:26;;;;;;;;;;;;;;;23.70;75.41;95396.88;5114075;28;1036;-49
2022/09/09 12:20:09;;;;;;;;;;;;;;;23.62;75.37;95381.69;5114194;28;1020;-49
2022/09/09 12:22:40;;;;;;;;;;;;;;;23.72;75.33;95397.47;5114019;28;1162;-49
2022/09/09 12:25:06;;;;;;;;;;;;;;;23.77;76.31;95403.03;5113899;28;1080;-48
2022/09/09 12:27:41;;;;;;;;;;;;;;;23.78;76.56;95407.44;5113841;28;1021;-49
2022/09/09 12:30:11;;;;;;;;;;;;;;;23.78;77.09;95394.66;5114182;28;1988;-50
2022/09/09 12:32:37;;;;;;;;;;;;;;;23.75;77.63;95391.53;5114032;28;966;-50
2022/09/09 12:35:09;;;;;;;;;;;;;;;23.78;77.11;95381.00;5113733;28;1111;-50
2022/09/09 12:37:37;;;;;;;;;;;;;;;23.74;75.93;95368.88;5113877;28;1838;-50
2022/09/09 12:40:04;;;;;;;;;;;;;;;23.73;75.80;95374.56;5113069;28;958;-49
2022/09/09 12:42:33;;;;;;;;;;;;;;;23.72;75.57;95370.19;5114008;28;961;-49
2022/09/09 12:45:00;;;;;;;;;;;;;;;23.67;76.34;95364.59;5113634;28;1021;-50
2022/09/09 12:47:26;;;;;;;;;;;;;;;23.69;76.64;95360.53;5113823;28;1033;-49
2022/09/09 12:49:52;;;;;;;;;;;;;;;23.68;77.21;95363.53;5113424;28;1989;-50
2022/09/09 12:52:18;;;;;;;;;;;;;;;23.69;76.32;95363.28;5113734;28;1125;-49
2022/09/09 12:54:50;;;;;;;;;;;;;;;23.69;77.94;95360.53;5099417;28;1149;-49
2022/09/09 12:57:16;;;;;;;;;;;;;;;23.67;78.58;95364.59;5093558;28;1052;-49
2022/09/09 12:59:45;;;;;;;;;;;;;;;23.61;78.83;95351.91;5093356;28;1041;-49
2022/09/09 13:02:16;;;;;;;;;;;;;;;23.57;80.16;95346.09;5093326;28;1013;-49
2022/09/09 13:04:43;;;;;;;;;;;;;;;23.56;80.40;95337.09;5093149;28;1083;-49
2022/09/09 13:07:11;;;;;;;;;;;;;;;23.61;81.76;95341.00;5093228;28;1087;-49
2022/09/09 13:09:38;;;;;;;;;;;;;;;23.62;83.77;95338.03;5093039;28;1106;-49
2022/09/09 13:12:07;;;;;;;;;;;;;;;23.58;84.94;95325.91;5093313;28;1987;-49
2022/09/09 13:14:37;;;;;;;;;;;;;;;23.52;85.57;95326.88;5093142;28;1041;-49
2022/09/09 13:17:04;;;;;;;;;;;;;;;23.51;84.85;95327.94;5093582;28;1043;-49